Time;durP1;ratioP1;P1;durP2;ratioP2;P2;SDS_P1;SDS_P2;PMS_P1;PMS_P2;Temp;Humidity;BMP_temperature;BMP_pressure;BME280_temperature;BME280_humidity;BME280_pressure;Samples;Min_cycle;Max_cycle;Signal;HPM_P1;HPM_P2
2023/05/16 00:01:53;;;;;;;;;;;;;;;;;;5054493;28;1047;-57
2023/05/16 00:04:19;;;;;;;;;;;;;;;;;;5053448;28;4726;-58
2023/05/16 00:06:44;;;;;;;;;;;;;;;;;;5053537;28;4442;-57
2023/05/16 00:09:09;;;;;;;;;;;;;;;;;;5052109;28;4488;-56
2023/05/16 00:11:35;;;;;;;;;;;;;;;;;;5053340;28;4628;-58
2023/05/16 00:14:00;;;;;;;;;;;;;;;;;;5054026;28;5148;-57
2023/05/16 00:16:28;;;;;;;;;;;;;;;;;;5053017;28;1226;-57
2023/05/16 00:18:53;;;;;;;;;;;;;;;;;;5050356;28;4580;-57
2023/05/16 00:21:18;;;;;;;;;;;;;;;;;;5050489;28;4470;-57
2023/05/16 00:23:43;;;;;;;;;;;;;;;;;;5053369;28;4473;-57
2023/05/16 00:26:09;;;;;;;;;;;;;;;;;;5053660;28;4644;-57
2023/05/16 00:28:34;;;;;;;;;;;;;;;;;;5054178;28;1112;-57
2023/05/16 00:31:00;;;;;;;;;;;;;;;;;;5053254;28;4951;-57
2023/05/16 00:33:25;;;;;;;;;;;;;;;;;;5053506;28;4698;-57
2023/05/16 00:35:52;;;;;;;;;;;;;;;;;;5053884;28;4650;-57
2023/05/16 00:38:17;;;;;;;;;;;;;;;;;;5049966;28;4693;-57
2023/05/16 00:40:43;;;;;;;;;;;;;;;;;;5054061;28;1085;-58
2023/05/16 00:43:08;;;;;;;;;;;;;;;;;;5053388;28;5008;-58
2023/05/16 00:45:33;;;;;;;;;;;;;;;;;;5053527;28;4983;-58
2023/05/16 00:47:58;;;;;;;;;;;;;;;;;;5051488;28;4455;-57
2023/05/16 00:50:24;;;;;;;;;;;;;;;;;;5063897;28;5176;-57
2023/05/16 00:52:49;;;;;;;;;;;;;;;;;;5050700;28;1253;-57
2023/05/16 00:55:14;;;;;;;;;;;;;;;;;;5052831;28;5043;-57
2023/05/16 00:57:40;;;;;;;;;;;;;;;;;;5049534;28;4570;-59
2023/05/16 01:00:05;;;;;;;;;;;;;;;;;;5053226;28;5056;-57
2023/05/16 01:02:31;;;;;;;;;;;;;;;;;;5048044;28;4559;-57
2023/05/16 01:04:56;;;;;;;;;;;;;;;;;;5048403;28;4491;-57
2023/05/16 01:07:21;;;;;;;;;;;;;;;;;;5032144;28;2017;-57
2023/05/16 01:09:46;;;;;;;;;;;;;;;;;;5049672;28;4649;-57
2023/05/16 01:12:20;;;;;;;;;;;;;;;;;;5048195;28;4620;-57
2023/05/16 01:14:54;;;;;;;;;;;;;;;;;;5065106;28;4486;-57
2023/05/16 01:17:19;;;;;;;;;;;;;;;;;;5049661;28;4581;-57
2023/05/16 01:19:45;;;;;;;;;;;;;;;;;;5044565;28;1539;-57
2023/05/16 01:22:14;;;;;;;;;;;;;;;;;;5050053;28;4921;-59
2023/05/16 01:24:39;;;;;;;;;;;;;;;;;;5048770;28;4990;-57
2023/05/16 01:27:05;;;;;;;;;;;;;;;;;;5049288;28;5760;-58
2023/05/16 01:29:30;;;;;;;;;;;;;;;;;;5049620;28;4459;-57
2023/05/16 01:31:57;;;;;;;;;;;;;;;;;;5048134;28;4638;-55
2023/05/16 01:34:22;;;;;;;;;;;;;;;;;;5050104;28;1136;-57
2023/05/16 01:36:51;;;;;;;;;;;;;;;;;;5049198;28;4428;-57
2023/05/16 01:39:21;;;;;;;;;;;;;;;;;;5048074;28;4699;-57
2023/05/16 01:41:52;;;;;;;;;;;;;;;;;;5044593;28;5078;-57
2023/05/16 01:44:21;;;;;;;;;;;;;;;;;;5049390;28;4591;-57
2023/05/16 01:46:47;;;;;;;;;;;;;;;;;;5048502;28;1918;-57
2023/05/16 01:49:16;;;;;;;;;;;;;;;;;;5034211;28;4982;-58
2023/05/16 01:51:41;;;;;;;;;;;;;;;;;;5049362;28;4961;-57
2023/05/16 01:54:07;;;;;;;;;;;;;;;;;;5047585;28;5076;-57
2023/05/16 01:56:33;;;;;;;;;;;;;;;;;;5047430;28;4820;-57
2023/05/16 01:58:58;;;;;;;;;;;;;;;;;;5047772;28;5729;-57
2023/05/16 02:01:23;;;;;;;;;;;;;;;;;;5049249;28;1162;-57
2023/05/16 02:03:49;;;;;;;;;;;;;;;;;;5048773;28;4616;-57
2023/05/16 02:06:15;;;;;;;;;;;;;;;;;;5048985;28;4471;-58
2023/05/16 02:08:40;;;;;;;;;;;;;;;;;;5048483;28;4487;-57
2023/05/16 02:11:05;;;;;;;;;;;;;;;;;;5047428;28;5502;-57
2023/05/16 02:13:31;;;;;;;;;;;;;;;;;;5049292;28;1152;-58
2023/05/16 02:15:56;;;;;;;;;;;;;;;;;;5048758;28;5125;-57
2023/05/16 02:18:22;;;;;;;;;;;;;;;;;;5048476;28;4639;-57
2023/05/16 02:20:48;;;;;;;;;;;;;;;;;;5046435;28;5040;-56
2023/05/16 02:23:13;;;;;;;;;;;;;;;;;;5048598;28;4601;-58
2023/05/16 02:25:38;;;;;;;;;;;;;;;;;;5049235;28;1910;-57
2023/05/16 02:28:04;;;;;;;;;;;;;;;;;;5048589;28;4608;-58
2023/05/16 02:30:29;;;;;;;;;;;;;;;;;;5048472;28;4637;-57
2023/05/16 02:32:54;;;;;;;;;;;;;;;;;;5048340;28;4429;-57
2023/05/16 02:35:20;;;;;;;;;;;;;;;;;;5048357;28;4450;-57
2023/05/16 02:37:45;;;;;;;;;;;;;;;;;;5047079;28;1302;-57
2023/05/16 02:40:11;;;;;;;;;;;;;;;;;;5048382;28;5083;-57
2023/05/16 02:42:37;;;;;;;;;;;;;;;;;;5047982;28;5503;-56
2023/05/16 02:45:02;;;;;;;;;;;;;;;;;;5048029;28;4463;-56
2023/05/16 02:47:28;;;;;;;;;;;;;;;;;;5047920;28;4643;-57
2023/05/16 02:49:53;;;;;;;;;;;;;;;;;;5039140;28;1439;-62
2023/05/16 02:52:18;;;;;;;;;;;;;;;;;;5047946;28;4578;-57
2023/05/16 02:54:44;;;;;;;;;;;;;;;;;;5048106;28;4552;-57
2023/05/16 02:57:09;;;;;;;;;;;;;;;;;;5047752;28;4859;-58
2023/05/16 02:59:35;;;;;;;;;;;;;;;;;;5047424;28;5192;-57
2023/05/16 03:02:00;;;;;;;;;;;;;;;;;;5047752;28;4716;-56
2023/05/16 03:04:25;;;;;;;;;;;;;;;;;;5048413;28;1144;-57
2023/05/16 03:06:50;;;;;;;;;;;;;;;;;;5048034;28;4924;-57
2023/05/16 03:09:16;;;;;;;;;;;;;;;;;;5047578;28;4632;-59
2023/05/16 03:11:41;;;;;;;;;;;;;;;;;;5048162;28;4444;-58
2023/05/16 03:14:07;;;;;;;;;;;;;;;;;;5046651;28;4848;-57
2023/05/16 03:16:32;;;;;;;;;;;;;;;;;;5048064;28;1333;-57
2023/05/16 03:18:57;;;;;;;;;;;;;;;;;;5044823;28;4903;-57
2023/05/16 03:21:23;;;;;;;;;;;;;;;;;;5047373;28;4490;-57
2023/05/16 03:23:48;;;;;;;;;;;;;;;;;;5046841;28;4492;-57
2023/05/16 03:26:13;;;;;;;;;;;;;;;;;;5047394;28;4502;-57
2023/05/16 03:28:38;;;;;;;;;;;;;;;;;;5047979;28;1194;-57
2023/05/16 03:31:04;;;;;;;;;;;;;;;;;;5047178;28;4554;-57
2023/05/16 03:33:29;;;;;;;;;;;;;;;;;;5047045;28;4489;-56
2023/05/16 03:35:54;;;;;;;;;;;;;;;;;;5047582;28;5004;-57
2023/05/16 03:38:20;;;;;;;;;;;;;;;;;;5047075;28;4505;-57
2023/05/16 03:40:45;;;;;;;;;;;;;;;;;;5048042;28;1175;-57
2023/05/16 03:43:11;;;;;;;;;;;;;;;;;;5047501;28;4910;-57
2023/05/16 03:45:36;;;;;;;;;;;;;;;;;;5046927;28;5373;-57
2023/05/16 03:48:01;;;;;;;;;;;;;;;;;;5060244;28;5048;-57
2023/05/16 03:50:27;;;;;;;;;;;;;;;;;;5043882;28;4459;-57
2023/05/16 03:52:53;;;;;;;;;;;;;;;;;;5047920;28;1249;-57
2023/05/16 03:55:18;;;;;;;;;;;;;;;;;;5046645;28;4915;-57
2023/05/16 03:57:44;;;;;;;;;;;;;;;;;;5047252;28;4788;-57
2023/05/16 04:00:11;;;;;;;;;;;;;;;;;;5046624;28;4886;-57
2023/05/16 04:02:36;;;;;;;;;;;;;;;;;;5047416;28;5682;-56
2023/05/16 04:05:02;;;;;;;;;;;;;;;;;;5047121;28;4686;-56
2023/05/16 04:07:27;;;;;;;;;;;;;;;;;;5047920;28;1918;-56
2023/05/16 04:09:53;;;;;;;;;;;;;;;;;;5047257;28;5087;-56
2023/05/16 04:12:18;;;;;;;;;;;;;;;;;;5047236;28;4984;-56
2023/05/16 04:14:43;;;;;;;;;;;;;;;;;;5047258;28;4700;-56
2023/05/16 04:17:09;;;;;;;;;;;;;;;;;;5047139;28;5093;-57
2023/05/16 04:19:35;;;;;;;;;;;;;;;;;;5045846;28;1555;-57
2023/05/16 04:22:00;;;;;;;;;;;;;;;;;;5047408;28;4433;-57
2023/05/16 04:24:27;;;;;;;;;;;;;;;;;;5047064;28;5043;-57
2023/05/16 04:26:53;;;;;;;;;;;;;;;;;;5046861;28;4766;-57
2023/05/16 04:29:18;;;;;;;;;;;;;;;;;;5045898;28;4605;-57
2023/05/16 04:31:43;;;;;;;;;;;;;;;;;;5045748;28;1137;-57
2023/05/16 04:34:09;;;;;;;;;;;;;;;;;;5046791;28;4592;-57
2023/05/16 04:36:34;;;;;;;;;;;;;;;;;;5047260;28;4448;-56
2023/05/16 04:38:59;;;;;;;;;;;;;;;;;;5049392;28;4457;-56
2023/05/16 04:41:25;;;;;;;;;;;;;;;;;;5050281;28;4691;-56
2023/05/16 04:43:50;;;;;;;;;;;;;;;;;;5051343;28;1086;-56
2023/05/16 04:46:16;;;;;;;;;;;;;;;;;;5049818;28;4381;-56
2023/05/16 04:48:41;;;;;;;;;;;;;;;;;;5043578;28;4557;-55
2023/05/16 04:51:06;;;;;;;;;;;;;;;;;;5050129;28;4653;-56
2023/05/16 04:53:32;;;;;;;;;;;;;;;;;;5050177;28;4488;-56
2023/05/16 04:55:57;;;;;;;;;;;;;;;;;;5049137;28;4816;-55
2023/05/16 04:58:23;;;;;;;;;;;;;;;;;;5050066;28;1214;-56
2023/05/16 05:00:48;;;;;;;;;;;;;;;;;;5049895;28;4920;-58
2023/05/16 05:03:13;;;;;;;;;;;;;;;;;;5050117;28;4797;-56
2023/05/16 05:05:39;;;;;;;;;;;;;;;;;;5049824;28;5162;-56
2023/05/16 05:08:05;;;;;;;;;;;;;;;;;;5050333;28;4985;-57
2023/05/16 05:10:30;;;;;;;;;;;;;;;;;;5050396;28;1219;-57
2023/05/16 05:12:56;;;;;;;;;;;;;;;;;;5060463;28;5164;-56
2023/05/16 05:15:21;;;;;;;;;;;;;;;;;;5048136;28;5027;-57
2023/05/16 05:17:46;;;;;;;;;;;;;;;;;;5049675;28;4576;-56
2023/05/16 05:20:11;;;;;;;;;;;;;;;;;;5047645;28;5048;-56
2023/05/16 05:22:37;;;;;;;;;;;;;;;;;;5050035;28;1472;-56
2023/05/16 05:25:02;;;;;;;;;;;;;;;;;;5049396;28;4425;-56
2023/05/16 05:27:27;;;;;;;;;;;;;;;;;;5047906;28;5025;-57
2023/05/16 05:29:53;;;;;;;;;;;;;;;;;;5049252;28;5069;-57
2023/05/16 05:32:18;;;;;;;;;;;;;;;;;;5048079;28;4733;-56
2023/05/16 05:34:43;;;;;;;;;;;;;;;;;;5053039;28;3190;-57
2023/05/16 05:37:08;;;;;;;;;;;;;;;;;;5046048;28;4867;-53
2023/05/16 05:39:34;;;;;;;;;;;;;;;;;;5053257;28;4750;-57
2023/05/16 05:42:02;;;;;;;;;;;;;;;;;;5051774;28;5399;-56
2023/05/16 05:44:28;;;;;;;;;;;;;;;;;;5047280;28;4507;-58
2023/05/16 05:46:53;;;;;;;;;;;;;;;;;;5047823;28;3040;-55
2023/05/16 05:49:19;;;;;;;;;;;;;;;;;;5043362;28;4422;-55
2023/05/16 05:51:44;;;;;;;;;;;;;;;;;;5046193;28;4558;-55
2023/05/16 05:54:09;;;;;;;;;;;;;;;;;;5047836;28;4519;-54
2023/05/16 05:56:35;;;;;;;;;;;;;;;;;;5044673;28;4816;-56
2023/05/16 05:59:00;;;;;;;;;;;;;;;;;;5047552;28;4969;-56
2023/05/16 06:01:26;;;;;;;;;;;;;;;;;;5048479;28;1336;-55
2023/05/16 06:03:51;;;;;;;;;;;;;;;;;;5043143;28;4888;-56
2023/05/16 06:06:16;;;;;;;;;;;;;;;;;;5046254;28;4468;-54
2023/05/16 06:08:41;;;;;;;;;;;;;;;;;;5047774;28;4464;-54
2023/05/16 06:11:07;;;;;;;;;;;;;;;;;;5048239;28;4470;-56
2023/05/16 06:13:32;;;;;;;;;;;;;;;;;;5049398;28;1357;-54
2023/05/16 06:15:58;;;;;;;;;;;;;;;;;;5047165;28;5024;-56
2023/05/16 06:18:23;;;;;;;;;;;;;;;;;;5048566;28;4512;-54
2023/05/16 06:20:49;;;;;;;;;;;;;;;;;;5046220;28;5416;-55
2023/05/16 06:23:14;;;;;;;;;;;;;;;;;;5048517;28;4486;-56
2023/05/16 06:25:39;;;;;;;;;;;;;;;;;;5049101;28;1985;-56
2023/05/16 06:28:05;;;;;;;;;;;;;;;;;;5046965;28;5245;-56
2023/05/16 06:30:30;;;;;;;;;;;;;;;;;;5048656;28;4671;-56
2023/05/16 06:32:55;;;;;;;;;;;;;;;;;;5047964;28;4479;-54
2023/05/16 06:35:21;;;;;;;;;;;;;;;;;;5048280;28;4481;-57
2023/05/16 06:37:46;;;;;;;;;;;;;;;;;;5049115;28;1226;-56
2023/05/16 06:40:11;;;;;;;;;;;;;;;;;;5047984;28;4948;-56
2023/05/16 06:42:37;;;;;;;;;;;;;;;;;;5046684;28;5114;-55
2023/05/16 06:45:02;;;;;;;;;;;;;;;;;;5047693;28;5254;-53
2023/05/16 06:47:27;;;;;;;;;;;;;;;;;;5047768;28;5072;-52
2023/05/16 06:49:53;;;;;;;;;;;;;;;;;;5045871;28;1496;-55
2023/05/16 06:52:18;;;;;;;;;;;;;;;;;;5047812;28;4662;-55
2023/05/16 06:54:43;;;;;;;;;;;;;;;;;;5047601;28;4584;-56
2023/05/16 06:57:08;;;;;;;;;;;;;;;;;;5058573;28;5099;-55
2023/05/16 06:59:35;;;;;;;;;;;;;;;;;;5044747;28;4471;-56
2023/05/16 07:02:00;;;;;;;;;;;;;;;;;;5047307;28;4959;-57
2023/05/16 07:04:25;;;;;;;;;;;;;;;;;;5047743;28;3348;-56
2023/05/16 07:06:51;;;;;;;;;;;;;;;;;;5046877;28;5106;-57
2023/05/16 07:09:16;;;;;;;;;;;;;;;;;;5045726;28;4737;-56
2023/05/16 07:11:41;;;;;;;;;;;;;;;;;;5046942;28;5109;-57
2023/05/16 07:14:07;;;;;;;;;;;;;;;;;;5043727;28;5138;-56
2023/05/16 07:16:32;;;;;;;;;;;;;;;;;;5047948;28;3157;-56
2023/05/16 07:18:57;;;;;;;;;;;;;;;;;;5060747;28;5150;-56
2023/05/16 07:21:22;;;;;;;;;;;;;;;;;;5047509;28;4710;-57
2023/05/16 07:23:48;;;;;;;;;;;;;;;;;;5047358;28;5065;-54
2023/05/16 07:26:13;;;;;;;;;;;;;;;;;;5048023;28;5032;-56
2023/05/16 07:28:38;;;;;;;;;;;;;;;;;;5061899;28;1381;-56
2023/05/16 07:31:05;;;;;;;;;;;;;;;;;;5047534;28;4626;-56
2023/05/16 07:33:30;;;;;;;;;;;;;;;;;;5047214;28;4467;-57
2023/05/16 07:35:56;;;;;;;;;;;;;;;;;;5047014;28;5024;-54
2023/05/16 07:38:21;;;;;;;;;;;;;;;;;;5045451;28;5173;-56
2023/05/16 07:40:46;;;;;;;;;;;;;;;;;;5045462;28;3210;-54
2023/05/16 07:43:11;;;;;;;;;;;;;;;;;;5041193;28;5160;-56
2023/05/16 07:45:37;;;;;;;;;;;;;;;;;;5044449;28;4459;-54
2023/05/16 07:48:02;;;;;;;;;;;;;;;;;;5040221;28;4579;-54
2023/05/16 07:50:28;;;;;;;;;;;;;;;;;;5042559;28;4558;-54
2023/05/16 07:52:53;;;;;;;;;;;;;;;;;;5047149;28;1208;-57
2023/05/16 07:55:18;;;;;;;;;;;;;;;;;;5047526;28;4999;-55
2023/05/16 07:57:43;;;;;;;;;;;;;;;;;;5055593;28;4779;-54
2023/05/16 08:00:09;;;;;;;;;;;;;;;;;;5048516;28;5042;-55
2023/05/16 08:02:34;;;;;;;;;;;;;;;;;;5057719;28;4552;-54
2023/05/16 08:05:00;;;;;;;;;;;;;;;;;;5050690;28;4530;-55
2023/05/16 08:07:25;;;;;;;;;;;;;;;;;;5058417;28;1914;-54
2023/05/16 08:09:50;;;;;;;;;;;;;;;;;;5054565;28;5601;-58
2023/05/16 08:12:15;;;;;;;;;;;;;;;;;;5044853;28;5159;-57
2023/05/16 08:14:41;;;;;;;;;;;;;;;;;;5057371;28;4519;-58
2023/05/16 08:17:06;;;;;;;;;;;;;;;;;;5055633;28;4752;-57
2023/05/16 08:19:31;;;;;;;;;;;;;;;;;;5049310;28;3312;-58
2023/05/16 08:21:57;;;;;;;;;;;;;;;;;;5052724;28;5116;-57
2023/05/16 08:24:22;;;;;;;;;;;;;;;;;;5060206;28;4605;-57
2023/05/16 08:26:47;;;;;;;;;;;;;;;;;;5051490;28;4519;-57
2023/05/16 08:29:13;;;;;;;;;;;;;;;;;;5062352;28;4449;-57
2023/05/16 08:31:38;;;;;;;;;;;;;;;;;;5058173;28;2187;-58
2023/05/16 08:34:05;;;;;;;;;;;;;;;;;;5058383;28;4665;-58
2023/05/16 08:36:30;;;;;;;;;;;;;;;;;;5058747;28;4787;-56
2023/05/16 08:38:55;;;;;;;;;;;;;;;;;;5052960;28;4527;-57
2023/05/16 08:41:21;;;;;;;;;;;;;;;;;;5065865;28;4492;-56
2023/05/16 08:43:46;;;;;;;;;;;;;;;;;;5057571;28;1214;-52
2023/05/16 08:46:11;;;;;;;;;;;;;;;;;;5064419;28;4446;-52
2023/05/16 08:48:36;;;;;;;;;;;;;;;;;;5048330;28;4642;-53
2023/05/16 08:51:02;;;;;;;;;;;;;;;;;;5057870;28;4997;-55
2023/05/16 08:53:31;;;;;;;;;;;;;;;;;;5053154;28;4694;-56
2023/05/16 08:55:56;;;;;;;;;;;;;;;;;;5052630;28;5027;-56
2023/05/16 08:58:21;;;;;;;;;;;;;;;;;;5034926;28;4409;-55
2023/05/16 09:00:47;;;;;;;;;;;;;;;;;;5048447;28;5021;-54
2023/05/16 09:03:12;;;;;;;;;;;;;;;;;;5064361;28;4977;-60
2023/05/16 09:05:37;;;;;;;;;;;;;;;;;;5065263;28;4656;-55
2023/05/16 09:08:02;;;;;;;;;;;;;;;;;;5054072;28;5096;-54
2023/05/16 09:10:28;;;;;;;;;;;;;;;;;;5058462;28;1113;-55
2023/05/16 09:12:53;;;;;;;;;;;;;;;;;;5050583;28;4517;-53
2023/05/16 09:15:19;;;;;;;;;;;;;;;;;;5057184;28;5479;-55
2023/05/16 09:17:45;;;;;;;;;;;;;;;;;;5059000;28;5127;-57
2023/05/16 09:20:14;;;;;;;;;;;;;;;;;;5058656;28;4965;-54
2023/05/16 09:22:39;;;;;;;;;;;;;;;;;;5058043;28;1598;-53
2023/05/16 09:25:04;;;;;;;;;;;;;;;;;;5051367;28;4396;-52
2023/05/16 09:27:30;;;;;;;;;;;;;;;;;;5053999;28;4545;-55
2023/05/16 09:29:56;;;;;;;;;;;;;;;;;;5051668;28;4458;-56
2023/05/16 09:32:21;;;;;;;;;;;;;;;;;;5052124;28;4631;-55
2023/05/16 09:34:48;;;;;;;;;;;;;;;;;;5043266;28;2632;-54
2023/05/16 09:37:16;;;;;;;;;;;;;;;;;;5049189;28;4969;-56
2023/05/16 09:39:48;;;;;;;;;;;;;;;;;;5048065;28;4839;-53
2023/05/16 09:42:14;;;;;;;;;;;;;;;;;;5053308;28;4482;-59
2023/05/16 09:44:40;;;;;;;;;;;;;;;;;;5052637;28;4679;-56
2023/05/16 09:47:05;;;;;;;;;;;;;;;;;;5056291;28;4676;-53
2023/05/16 09:49:30;;;;;;;;;;;;;;;;;;5047037;28;1372;-54
2023/05/16 09:51:58;;;;;;;;;;;;;;;;;;5049024;28;4623;-54
2023/05/16 09:54:33;;;;;;;;;;;;;;;;;;5051114;28;4695;-58
2023/05/16 09:56:59;;;;;;;;;;;;;;;;;;5049980;28;5114;-58
2023/05/16 09:59:24;;;;;;;;;;;;;;;;;;5051067;28;4564;-57
2023/05/16 10:01:50;;;;;;;;;;;;;;;;;;5041509;28;1706;-58
2023/05/16 10:04:15;;;;;;;;;;;;;;;;;;5070632;28;6010;-58
2023/05/16 10:06:41;;;;;;;;;;;;;;;;;;5054386;28;5065;-58
2023/05/16 10:09:07;;;;;;;;;;;;;;;;;;5055670;28;4729;-59
2023/05/16 10:11:32;;;;;;;;;;;;;;;;;;5041605;28;5067;-58
2023/05/16 10:13:57;;;;;;;;;;;;;;;;;;5043783;28;5023;-57
2023/05/16 10:16:23;;;;;;;;;;;;;;;;;;5064686;28;1040;-58
2023/05/16 10:18:48;;;;;;;;;;;;;;;;;;5049489;28;5189;-58
2023/05/16 10:21:14;;;;;;;;;;;;;;;;;;5048278;28;5016;-57
2023/05/16 10:23:42;;;;;;;;;;;;;;;;;;5061673;28;4667;-58
2023/05/16 10:26:08;;;;;;;;;;;;;;;;;;5051727;28;4555;-55
2023/05/16 10:28:33;;;;;;;;;;;;;;;;;;5047215;28;3363;-53
2023/05/16 10:30:58;;;;;;;;;;;;;;;;;;5054301;28;4815;-51
2023/05/16 10:33:23;;;;;;;;;;;;;;;;;;5053109;28;5546;-54
2023/05/16 10:35:49;;;;;;;;;;;;;;;;;;5047845;28;4727;-56
2023/05/16 10:38:15;;;;;;;;;;;;;;;;;;5055214;28;5057;-56
2023/05/16 10:40:40;;;;;;;;;;;;;;;;;;5051926;28;3301;-57
2023/05/16 10:43:09;;;;;;;;;;;;;;;;;;5054443;28;4438;-56
2023/05/16 10:45:41;;;;;;;;;;;;;;;;;;5050630;28;4642;-55
2023/05/16 10:48:08;;;;;;;;;;;;;;;;;;5045842;28;4806;-55
2023/05/16 10:50:42;;;;;;;;;;;;;;;;;;5053115;28;5084;-56
2023/05/16 10:53:10;;;;;;;;;;;;;;;;;;5047629;28;4895;-56
2023/05/16 10:55:35;;;;;;;;;;;;;;;;;;5049769;28;4840;-54
2023/05/16 10:58:01;;;;;;;;;;;;;;;;;;5045774;28;4530;-55
2023/05/16 11:00:27;;;;;;;;;;;;;;;;;;5050949;28;4575;-57
2023/05/16 11:02:52;;;;;;;;;;;;;;;;;;5059829;28;4968;-57
2023/05/16 11:05:17;;;;;;;;;;;;;;;;;;5045850;28;5081;-57
2023/05/16 11:07:43;;;;;;;;;;;;;;;;;;5063940;28;1938;-55
2023/05/16 11:10:09;;;;;;;;;;;;;;;;;;5060305;28;4937;-57
2023/05/16 11:12:37;;;;;;;;;;;;;;;;;;5059696;28;5126;-57
2023/05/16 11:15:16;;;;;;;;;;;;;;;;;;5058987;28;5204;-58
2023/05/16 11:17:41;;;;;;;;;;;;;;;;;;5057299;28;5129;-58
2023/05/16 11:20:09;;;;;;;;;;;;;;;;;;5040178;28;5522;-56
2023/05/16 11:22:40;;;;;;;;;;;;;;;;;;5054757;28;3499;-54
2023/05/16 11:25:06;;;;;;;;;;;;;;;;;;5043974;28;5033;-53
2023/05/16 11:27:35;;;;;;;;;;;;;;;;;;5053693;28;4474;-54
2023/05/16 11:30:09;;;;;;;;;;;;;;;;;;5052089;28;4425;-54
2023/05/16 11:32:35;;;;;;;;;;;;;;;;;;5053098;28;4639;-54
2023/05/16 11:35:01;;;;;;;;;;;;;;;;;;5056774;28;4698;-53
2023/05/16 11:37:26;;;;;;;;;;;;;;;;;;5050181;28;1298;-55
2023/05/16 11:39:51;;;;;;;;;;;;;;;;;;5051780;28;5346;-56
2023/05/16 11:42:17;;;;;;;;;;;;;;;;;;5053041;28;4449;-56
2023/05/16 11:44:42;;;;;;;;;;;;;;;;;;5058282;28;5121;-56
2023/05/16 11:47:07;;;;;;;;;;;;;;;;;;5052567;28;4660;-54
2023/05/16 11:49:34;;;;;;;;;;;;;;;;;;5057548;28;1593;-55
2023/05/16 11:51:59;;;;;;;;;;;;;;;;;;5062802;28;5860;-55
2023/05/16 11:54:25;;;;;;;;;;;;;;;;;;5059354;28;4678;-52
2023/05/16 11:56:50;;;;;;;;;;;;;;;;;;5058291;28;4808;-54
2023/05/16 11:59:18;;;;;;;;;;;;;;;;;;5054389;28;4622;-53
2023/05/16 12:01:43;;;;;;;;;;;;;;;;;;5048877;28;1249;-55
2023/05/16 12:04:12;;;;;;;;;;;;;;;;;;5063283;28;4688;-54
2023/05/16 12:06:38;;;;;;;;;;;;;;;;;;5059190;28;4522;-56
2023/05/16 12:09:09;;;;;;;;;;;;;;;;;;5059425;28;4489;-54
2023/05/16 12:11:35;;;;;;;;;;;;;;;;;;5062599;28;5078;-54
2023/05/16 12:14:01;;;;;;;;;;;;;;;;;;5057659;28;4870;-54
2023/05/16 12:16:26;;;;;;;;;;;;;;;;;;5052774;28;1407;-53
2023/05/16 12:18:51;;;;;;;;;;;;;;;;;;5056063;28;4667;-54
2023/05/16 12:21:17;;;;;;;;;;;;;;;;;;5055799;28;4444;-53
2023/05/16 12:23:42;;;;;;;;;;;;;;;;;;5056232;28;4464;-54
2023/05/16 12:26:07;;;;;;;;;;;;;;;;;;5051601;28;4699;-54
2023/05/16 12:28:33;;;;;;;;;;;;;;;;;;5056617;28;1276;-55
2023/05/16 12:30:58;;;;;;;;;;;;;;;;;;5054136;28;4434;-55
2023/05/16 12:33:24;;;;;;;;;;;;;;;;;;5053958;28;4659;-54
2023/05/16 12:35:51;;;;;;;;;;;;;;;;;;5060277;28;4421;-55
2023/05/16 12:38:17;;;;;;;;;;;;;;;;;;5056574;28;5122;-53
2023/05/16 12:40:42;;;;;;;;;;;;;;;;;;5050481;28;1513;-53
2023/05/16 12:43:20;;;;;;;;;;;;;;;;;;5062126;28;5135;-56
2023/05/16 12:45:49;;;;;;;;;;;;;;;;;;5045518;28;4494;-53
2023/05/16 12:48:15;;;;;;;;;;;;;;;;;;5077487;28;4657;-55
2023/05/16 12:50:40;;;;;;;;;;;;;;;;;;5041099;28;4430;-55
2023/05/16 12:53:09;;;;;;;;;;;;;;;;;;5048132;28;5215;-53
2023/05/16 12:55:34;;;;;;;;;;;;;;;;;;5049547;28;4757;-57
2023/05/16 12:58:00;;;;;;;;;;;;;;;;;;5051861;28;4589;-55
2023/05/16 13:00:26;;;;;;;;;;;;;;;;;;5053177;28;4720;-56
2023/05/16 13:02:51;;;;;;;;;;;;;;;;;;5061468;28;5524;-54
2023/05/16 13:05:16;;;;;;;;;;;;;;;;;;5059255;28;4645;-53
2023/05/16 13:07:42;;;;;;;;;;;;;;;;;;5063793;28;1910;-53
2023/05/16 13:10:11;;;;;;;;;;;;;;;;;;5057515;28;4780;-54
2023/05/16 13:12:37;;;;;;;;;;;;;;;;;;5058147;28;4527;-54
2023/05/16 13:15:03;;;;;;;;;;;;;;;;;;5059792;28;4476;-53
2023/05/16 13:17:29;;;;;;;;;;;;;;;;;;5059145;28;5017;-57
2023/05/16 13:19:54;;;;;;;;;;;;;;;;;;5061418;28;1423;-53
2023/05/16 13:22:20;;;;;;;;;;;;;;;;;;5059373;28;4609;-55
2023/05/16 13:24:45;;;;;;;;;;;;;;;;;;5051518;28;4742;-54
2023/05/16 13:27:10;;;;;;;;;;;;;;;;;;5053297;28;5032;-55
2023/05/16 13:29:35;;;;;;;;;;;;;;;;;;5057186;28;4664;-55
2023/05/16 13:32:01;;;;;;;;;;;;;;;;;;5054761;28;4496;-55
2023/05/16 13:34:26;;;;;;;;;;;;;;;;;;5063473;28;1258;-55
2023/05/16 13:36:51;;;;;;;;;;;;;;;;;;5054882;28;4504;-53
2023/05/16 13:39:17;;;;;;;;;;;;;;;;;;5063771;28;4738;-55
2023/05/16 13:41:42;;;;;;;;;;;;;;;;;;5060103;28;4460;-53
2023/05/16 13:44:07;;;;;;;;;;;;;;;;;;5056413;28;4925;-52
2023/05/16 13:46:33;;;;;;;;;;;;;;;;;;5059707;28;1918;-52
2023/05/16 13:48:58;;;;;;;;;;;;;;;;;;5055366;28;4582;-54
2023/05/16 13:51:23;;;;;;;;;;;;;;;;;;5050128;28;4473;-53
2023/05/16 13:53:49;;;;;;;;;;;;;;;;;;5052969;28;4650;-50
2023/05/16 13:56:14;;;;;;;;;;;;;;;;;;5053231;28;4826;-54
2023/05/16 13:58:40;;;;;;;;;;;;;;;;;;5055789;28;1224;-52
2023/05/16 14:01:05;;;;;;;;;;;;;;;;;;5057009;28;4998;-57
2023/05/16 14:03:31;;;;;;;;;;;;;;;;;;5050027;28;4644;-52
2023/05/16 14:05:56;;;;;;;;;;;;;;;;;;5059994;28;4475;-55
2023/05/16 14:08:21;;;;;;;;;;;;;;;;;;5029627;28;5149;-53
2023/05/16 14:10:46;;;;;;;;;;;;;;;;;;5061908;28;1084;-52
2023/05/16 14:13:12;;;;;;;;;;;;;;;;;;5050118;28;4464;-54
2023/05/16 14:15:37;;;;;;;;;;;;;;;;;;5051913;28;4516;-56
2023/05/16 14:18:03;;;;;;;;;;;;;;;;;;5049753;28;4860;-54
2023/05/16 14:20:28;;;;;;;;;;;;;;;;;;5039924;28;4633;-53
2023/05/16 14:22:54;;;;;;;;;;;;;;;;;;5048798;28;3282;-54
2023/05/16 14:25:19;;;;;;;;;;;;;;;;;;5047219;28;5015;-58
2023/05/16 14:27:44;;;;;;;;;;;;;;;;;;5045079;28;4494;-57
2023/05/16 14:30:10;;;;;;;;;;;;;;;;;;5068638;28;5961;-57
2023/05/16 14:32:36;;;;;;;;;;;;;;;;;;5049448;28;4687;-57
2023/05/16 14:35:01;;;;;;;;;;;;;;;;;;5048775;28;4501;-58
2023/05/16 14:37:26;;;;;;;;;;;;;;;;;;5050951;28;1220;-58
2023/05/16 14:39:53;;;;;;;;;;;;;;;;;;5051894;28;4649;-57
2023/05/16 14:42:18;;;;;;;;;;;;;;;;;;5055277;28;4545;-56
2023/05/16 14:44:43;;;;;;;;;;;;;;;;;;5045476;28;4464;-61
2023/05/16 14:47:09;;;;;;;;;;;;;;;;;;5047580;28;4720;-59
2023/05/16 14:49:34;;;;;;;;;;;;;;;;;;5047602;28;3264;-59
2023/05/16 14:51:59;;;;;;;;;;;;;;;;;;5041914;28;5213;-60
2023/05/16 14:54:25;;;;;;;;;;;;;;;;;;5057233;28;4721;-57
2023/05/16 14:56:50;;;;;;;;;;;;;;;;;;5045080;28;4816;-58
2023/05/16 14:59:15;;;;;;;;;;;;;;;;;;5057895;28;5800;-58
2023/05/16 15:01:41;;;;;;;;;;;;;;;;;;5039634;28;3615;-59
2023/05/16 15:04:06;;;;;;;;;;;;;;;;;;5046212;28;5097;-59
2023/05/16 15:06:31;;;;;;;;;;;;;;;;;;5047428;28;4571;-59
2023/05/16 15:08:56;;;;;;;;;;;;;;;;;;5052128;28;4529;-59
2023/05/16 15:11:22;;;;;;;;;;;;;;;;;;5045648;28;4467;-59
2023/05/16 15:13:47;;;;;;;;;;;;;;;;;;5062512;28;1471;-59
2023/05/16 15:16:12;;;;;;;;;;;;;;;;;;5054300;28;5091;-59
2023/05/16 15:18:38;;;;;;;;;;;;;;;;;;5060062;28;4749;-59
2023/05/16 15:21:03;;;;;;;;;;;;;;;;;;5045946;28;4446;-60
2023/05/16 15:23:28;;;;;;;;;;;;;;;;;;5059183;28;4457;-59
2023/05/16 15:25:54;;;;;;;;;;;;;;;;;;5056012;28;1212;-59
2023/05/16 15:28:19;;;;;;;;;;;;;;;;;;5061177;28;4400;-60
2023/05/16 15:30:44;;;;;;;;;;;;;;;;;;5054287;28;5170;-60
2023/05/16 15:33:09;;;;;;;;;;;;;;;;;;5057713;28;4956;-59
2023/05/16 15:35:35;;;;;;;;;;;;;;;;;;5055743;28;4501;-59
2023/05/16 15:38:00;;;;;;;;;;;;;;;;;;5050158;28;4684;-60
2023/05/16 15:40:25;;;;;;;;;;;;;;;;;;5055924;28;1178;-59
2023/05/16 15:42:51;;;;;;;;;;;;;;;;;;5057868;28;4986;-59
2023/05/16 15:45:16;;;;;;;;;;;;;;;;;;5056347;28;5085;-59
2023/05/16 15:47:41;;;;;;;;;;;;;;;;;;5051521;28;4688;-59
2023/05/16 15:50:07;;;;;;;;;;;;;;;;;;5051120;28;4620;-59
2023/05/16 15:52:34;;;;;;;;;;;;;;;;;;5052220;28;1564;-60
2023/05/16 15:55:00;;;;;;;;;;;;;;;;;;5056396;28;4880;-59
2023/05/16 15:57:25;;;;;;;;;;;;;;;;;;5055227;28;4974;-59
2023/05/16 15:59:50;;;;;;;;;;;;;;;;;;5049166;28;4996;-59
2023/05/16 16:02:15;;;;;;;;;;;;;;;;;;5064431;28;4444;-59
2023/05/16 16:04:41;;;;;;;;;;;;;;;;;;5055050;28;1209;-59
2023/05/16 16:07:06;;;;;;;;;;;;;;;;;;5060776;28;4582;-60
2023/05/16 16:09:31;;;;;;;;;;;;;;;;;;5061981;28;4811;-60
2023/05/16 16:11:57;;;;;;;;;;;;;;;;;;5055868;28;4677;-59
2023/05/16 16:14:23;;;;;;;;;;;;;;;;;;5049670;28;4473;-59
2023/05/16 16:16:48;;;;;;;;;;;;;;;;;;5062478;28;1191;-59
2023/05/16 16:19:13;;;;;;;;;;;;;;;;;;5053329;28;4998;-60
2023/05/16 16:21:39;;;;;;;;;;;;;;;;;;5059433;28;4627;-59
2023/05/16 16:24:04;;;;;;;;;;;;;;;;;;5051132;28;4684;-60
2023/05/16 16:26:30;;;;;;;;;;;;;;;;;;5056488;28;5046;-59
2023/05/16 16:28:55;;;;;;;;;;;;;;;;;;5050055;28;1315;-59
2023/05/16 16:31:21;;;;;;;;;;;;;;;;;;5054039;28;4893;-59
2023/05/16 16:33:47;;;;;;;;;;;;;;;;;;5054884;28;4616;-59
2023/05/16 16:36:13;;;;;;;;;;;;;;;;;;5058084;28;4646;-59
2023/05/16 16:38:38;;;;;;;;;;;;;;;;;;5060007;28;4452;-60
2023/05/16 16:41:03;;;;;;;;;;;;;;;;;;5059095;28;4852;-60
2023/05/16 16:43:29;;;;;;;;;;;;;;;;;;5057951;28;1291;-59
2023/05/16 16:45:54;;;;;;;;;;;;;;;;;;5062605;28;4937;-60
2023/05/16 16:48:19;;;;;;;;;;;;;;;;;;5050162;28;4542;-59
2023/05/16 16:50:45;;;;;;;;;;;;;;;;;;5058338;28;4646;-60
2023/05/16 16:53:10;;;;;;;;;;;;;;;;;;5059128;28;4556;-59